createdAt,value
2023-04-02T00:00:09.267Z,5.70
2023-04-02T00:05:54.414Z,5.30
2023-04-02T00:11:02.009Z,5.00
2023-04-02T00:16:07.238Z,5.00
2023-04-02T00:21:26.166Z,5.90
2023-04-02T00:26:40.545Z,5.90
2023-04-02T00:31:45.245Z,6.10
2023-04-02T00:36:48.945Z,5.40
2023-04-02T00:41:58.305Z,6.00
2023-04-02T00:47:16.760Z,6.00
2023-04-02T00:52:25.330Z,5.90
2023-04-02T00:57:27.813Z,6.20
2023-04-02T01:02:33.748Z,7.70
2023-04-02T01:07:42.911Z,6.90
2023-04-02T01:12:55.240Z,6.50
2023-04-02T01:18:05.969Z,6.00
2023-04-02T01:23:14.078Z,4.40
2023-04-02T01:28:26.896Z,6.60
2023-04-02T01:33:34.075Z,8.00
2023-04-02T01:38:47.450Z,6.50
2023-04-02T01:43:58.103Z,4.60
2023-04-02T01:49:03.917Z,8.30
2023-04-02T01:54:06.654Z,9.10
2023-04-02T01:59:19.820Z,8.50
2023-04-02T02:04:21.959Z,7.60
2023-04-02T02:09:28.484Z,8.20
2023-04-02T02:14:31.985Z,7.40
2023-04-02T02:20:01.132Z,9.00
2023-04-02T02:25:16.582Z,9.10
2023-04-02T02:30:30.939Z,10.70
2023-04-02T02:35:50.426Z,8.20
2023-04-02T02:40:57.167Z,9.20
2023-04-02T02:46:00.844Z,7.80
2023-04-02T02:51:09.038Z,6.90
2023-04-02T02:56:12.360Z,7.40
2023-04-02T03:01:14.499Z,8.40
2023-04-02T03:06:20.315Z,6.80
2023-04-02T03:11:49.299Z,8.50
2023-04-02T03:16:58.282Z,5.10
2023-04-02T03:22:12.342Z,5.50
2023-04-02T03:27:26.068Z,7.60
2023-04-02T03:32:37.991Z,6.50
2023-04-02T03:37:52.834Z,7.20
2023-04-02T03:43:27.060Z,4.10
2023-04-02T03:48:42.751Z,5.70
2023-04-02T03:53:46.405Z,6.10
2023-04-02T03:58:56.128Z,7.30
2023-04-02T04:04:10.631Z,6.20
2023-04-02T04:09:27.116Z,5.40
2023-04-02T04:14:34.958Z,6.10
2023-04-02T04:19:44.938Z,6.50
2023-04-02T04:24:47.853Z,5.40
2023-04-02T04:30:22.570Z,7.90
2023-04-02T04:35:39.219Z,8.40
2023-04-02T04:40:54.251Z,7.10
2023-04-02T04:46:05.987Z,8.00
2023-04-02T04:51:26.948Z,7.30
2023-04-02T04:56:31.593Z,8.70
2023-04-02T05:01:50.516Z,6.40
2023-04-02T05:07:04.742Z,7.40
2023-04-02T05:12:39.291Z,9.50
2023-04-02T05:17:55.268Z,5.80
2023-04-02T05:23:27.074Z,6.60
2023-04-02T05:28:47.500Z,10.80
2023-04-02T05:33:50.001Z,9.50
2023-04-02T05:38:54.047Z,17.00
2023-04-02T05:44:16.711Z,8.90
2023-04-02T05:49:43.315Z,9.00
2023-04-02T05:55:11.875Z,8.70
2023-04-02T06:00:20.140Z,6.80
2023-04-02T06:05:36.258Z,4.50
2023-04-02T06:11:13.492Z,7.70
2023-04-02T06:16:16.406Z,7.20
2023-04-02T06:21:22.068Z,9.10
2023-04-02T06:26:31.544Z,8.50
2023-04-02T06:31:44.379Z,6.40
2023-04-02T06:36:49.976Z,7.40
2023-04-02T06:42:00.757Z,6.50
2023-04-02T06:47:12.085Z,6.40
2023-04-02T06:52:23.624Z,6.80
2023-04-02T06:57:25.934Z,4.90
2023-04-02T07:02:33.923Z,4.30
2023-04-02T07:07:36.167Z,6.60
2023-04-02T07:12:38.765Z,6.60
2023-04-02T07:17:41.779Z,6.80
2023-04-02T07:22:46.935Z,5.10
2023-04-02T07:27:51.022Z,6.40
2023-04-02T07:32:53.208Z,6.00
2023-04-02T07:37:56.410Z,3.60
2023-04-02T07:42:58.517Z,5.60
2023-04-02T07:48:09.002Z,4.80
2023-04-02T07:53:37.688Z,7.00
2023-04-02T07:58:40.012Z,5.20
2023-04-02T08:03:42.631Z,6.20
2023-04-02T08:08:44.675Z,5.50
2023-04-02T08:13:46.992Z,5.00
2023-04-02T08:18:49.343Z,5.40
2023-04-02T08:23:52.263Z,6.50
2023-04-02T08:28:54.412Z,4.50
2023-04-02T08:33:56.589Z,6.60
2023-04-02T08:38:58.659Z,10.80
2023-04-02T08:44:39.125Z,8.80
2023-04-02T08:49:57.321Z,7.90
2023-04-02T08:55:02.676Z,8.90
2023-04-02T09:00:13.262Z,6.00
2023-04-02T09:05:20.485Z,7.50
2023-04-02T09:10:31.830Z,10.50
2023-04-02T09:15:36.601Z,6.20
2023-04-02T09:20:44.230Z,5.50
2023-04-02T09:26:03.719Z,8.40
2023-04-02T09:31:34.283Z,7.40
2023-04-02T09:36:39.658Z,7.40
2023-04-02T09:41:42.889Z,5.70
2023-04-02T09:47:00.043Z,5.80
2023-04-02T09:52:08.439Z,6.60
2023-04-02T09:57:28.406Z,7.40
2023-04-02T10:02:32.581Z,6.60
2023-04-02T10:07:49.176Z,5.50
2023-04-02T10:13:06.967Z,5.60
2023-04-02T10:18:41.684Z,7.00
2023-04-02T10:23:44.688Z,5.30
2023-04-02T10:29:10.195Z,6.00
2023-04-02T10:34:23.439Z,8.20
2023-04-02T10:39:39.820Z,5.90
2023-04-02T10:44:47.601Z,6.50
2023-04-02T10:49:58.552Z,3.80
2023-04-02T10:55:14.518Z,6.10
2023-04-02T11:00:34.589Z,4.40
2023-04-02T11:05:51.115Z,4.10
2023-04-02T11:10:58.318Z,4.70
2023-04-02T11:16:00.551Z,5.20
2023-04-02T11:21:07.018Z,4.60
2023-04-02T11:26:56.932Z,3.30
2023-04-02T11:32:25.068Z,5.00
2023-04-02T11:37:38.068Z,5.00
2023-04-02T11:42:48.897Z,4.40
2023-04-02T11:48:08.014Z,3.80
2023-04-02T11:53:14.032Z,4.20
2023-04-02T11:58:40.948Z,4.10
2023-04-02T12:04:08.365Z,3.00
2023-04-02T12:09:23.927Z,4.20
2023-04-02T12:14:45.432Z,4.50
2023-04-02T12:19:53.944Z,4.10
2023-04-02T12:25:06.257Z,3.10
2023-04-02T12:30:22.279Z,4.20
2023-04-02T12:35:34.109Z,4.40
2023-04-02T12:40:36.532Z,3.80
2023-04-02T12:45:38.994Z,3.20
2023-04-02T12:50:44.353Z,3.50
2023-04-02T12:56:02.148Z,3.00
2023-04-02T13:01:19.670Z,3.50
2023-04-02T13:06:32.823Z,2.20
2023-04-02T13:11:40.683Z,2.60
2023-04-02T13:16:44.104Z,3.60
2023-04-02T13:21:46.980Z,3.40
2023-04-02T13:26:55.522Z,3.40
2023-04-02T13:32:07.343Z,2.20
2023-04-02T13:37:12.856Z,2.00
2023-04-02T13:42:17.196Z,2.30
2023-04-02T13:47:19.757Z,3.60
2023-04-02T13:52:22.006Z,2.50
2023-04-02T13:57:24.273Z,4.70
2023-04-02T14:02:27.144Z,3.50
2023-04-02T14:07:50.583Z,1.80
2023-04-02T14:13:29.246Z,3.10
2023-04-02T14:18:56.562Z,2.30
2023-04-02T14:24:17.094Z,1.30
2023-04-02T14:29:47.945Z,2.30
2023-04-02T14:35:10.083Z,2.80
2023-04-02T14:40:45.892Z,2.60
2023-04-02T14:45:56.898Z,3.30
2023-04-02T14:51:09.948Z,4.40
2023-04-02T14:56:15.858Z,2.80
2023-04-02T15:01:27.215Z,3.70
2023-04-02T15:06:40.319Z,3.40
2023-04-02T15:11:49.481Z,2.80
2023-04-02T15:16:52.068Z,2.70
2023-04-02T15:22:14.230Z,1.50
2023-04-02T15:27:29.327Z,1.40
2023-04-02T15:32:34.456Z,2.00
2023-04-02T15:38:03.346Z,1.90
2023-04-02T15:43:31.428Z,3.10
2023-04-02T15:48:42.819Z,3.40
2023-04-02T15:54:04.253Z,2.20
2023-04-02T15:59:21.788Z,2.50
2023-04-02T16:04:35.949Z,2.20
2023-04-02T16:09:44.145Z,2.00
2023-04-02T16:14:49.312Z,3.90
2023-04-02T16:19:57.021Z,6.00
2023-04-02T16:25:18.701Z,2.60
2023-04-02T16:30:45.122Z,3.10
2023-04-02T16:35:56.868Z,3.00
2023-04-02T16:41:22.619Z,1.90
2023-04-02T16:46:40.360Z,2.10
2023-04-02T16:52:08.617Z,4.10
2023-04-02T16:57:32.415Z,2.90
2023-04-02T17:02:45.529Z,3.60
2023-04-02T17:08:18.133Z,3.70
2023-04-02T17:13:32.175Z,3.30
2023-04-02T17:18:35.117Z,7.60
2023-04-02T17:23:55.936Z,5.90
2023-04-02T17:29:05.775Z,2.10
2023-04-02T17:34:17.806Z,3.20
2023-04-02T17:39:36.251Z,6.00
2023-04-02T17:45:03.272Z,2.60
2023-04-02T17:50:14.660Z,3.70
2023-04-02T17:55:51.555Z,2.40
2023-04-02T18:01:09.649Z,2.90
2023-04-02T18:06:47.122Z,4.20
2023-04-02T18:11:52.383Z,2.10
2023-04-02T18:16:57.592Z,3.90
2023-04-02T18:22:22.253Z,2.90
2023-04-02T18:27:42.534Z,4.10
2023-04-02T18:33:00.198Z,6.10
2023-04-02T18:38:11.745Z,3.20
2023-04-02T18:43:42.701Z,4.60
2023-04-02T18:48:51.167Z,5.60
2023-04-02T18:54:09.492Z,4.00
2023-04-02T18:59:11.627Z,3.30
2023-04-02T19:04:20.434Z,2.60
2023-04-02T19:09:47.223Z,3.40
2023-04-02T19:14:51.133Z,3.20
2023-04-02T19:20:07.192Z,3.10
2023-04-02T19:25:34.633Z,1.30
2023-04-02T19:30:49.132Z,3.60
2023-04-02T19:36:25.572Z,3.00
2023-04-02T19:41:37.448Z,3.20
2023-04-02T19:46:40.378Z,6.00
2023-04-02T19:51:43.803Z,3.10
2023-04-02T19:56:46.068Z,3.10
2023-04-02T20:01:48.182Z,3.70
2023-04-02T20:06:51.357Z,5.50
2023-04-02T20:11:54.212Z,2.00
2023-04-02T20:16:56.341Z,2.00
2023-04-02T20:21:58.462Z,2.30
2023-04-02T20:27:00.721Z,5.00
2023-04-02T20:32:03.210Z,3.80
2023-04-02T20:37:06.268Z,4.30
2023-04-02T20:42:08.688Z,3.60
2023-04-02T20:47:11.006Z,3.70
2023-04-02T20:52:13.238Z,3.40
2023-04-02T20:57:15.346Z,3.70
2023-04-02T21:02:17.442Z,3.20
2023-04-02T21:07:19.747Z,7.30
2023-04-02T21:12:24.465Z,3.70
2023-04-02T21:17:27.163Z,2.80
2023-04-02T21:22:29.505Z,4.20
2023-04-02T21:27:31.599Z,5.10
2023-04-02T21:32:35.135Z,2.10
2023-04-02T21:37:37.932Z,2.10
2023-04-02T21:42:40.079Z,5.70
2023-04-02T21:47:42.214Z,5.10
2023-04-02T21:52:44.323Z,3.70
2023-04-02T21:57:46.314Z,5.40
2023-04-02T22:02:48.364Z,3.60
2023-04-02T22:07:50.465Z,4.40
2023-04-02T22:12:52.485Z,2.70
2023-04-02T22:17:59.920Z,2.80
2023-04-02T22:23:02.407Z,3.40
2023-04-02T22:28:04.569Z,2.80
2023-04-02T22:33:08.214Z,4.00
2023-04-02T22:38:10.728Z,2.60
2023-04-02T22:43:12.859Z,3.90
2023-04-02T22:48:15.076Z,3.60
2023-04-02T22:53:17.514Z,2.60
2023-04-02T22:58:20.732Z,3.50
2023-04-02T23:03:25.004Z,4.20
2023-04-02T23:08:26.975Z,6.20
2023-04-02T23:13:29.402Z,2.90
2023-04-02T23:18:33.333Z,6.10
2023-04-02T23:23:35.996Z,2.90
2023-04-02T23:28:40.243Z,1.60
2023-04-02T23:33:42.780Z,1.70
2023-04-02T23:38:44.843Z,2.60
2023-04-02T23:43:50.980Z,3.10
2023-04-02T23:48:54.237Z,2.00
2023-04-02T23:53:56.430Z,3.10
2023-04-02T23:58:58.409Z,1.00
